Allan, Canada
Current Conditions -  °F | °C
As of 10:00 PM on Friday 19 Dec 2014 (Local Time) from CYXE Reporting Station
Light Snow Light Snow  
Wind Chill:   Ceiling: 200
Heat Index: 18°   Visibility: 0.5mi
Dew Point: 16°   Wind: 12mph
Humidity: 93%   Direction: 140°SE
Pressure: 29.88"   Gusts: NA
Location:  51.9°N, 106.07°W
Report Text: CYXE 200400Z 14010KT 1/2SM R09/P6000FT/U -SN FZFG OVC002 M08/M09 A2988 RMK FG5ST3 SLP156
Loading
Personal Weather Stations






























Interactive Weather Map New forecast layout! Learn more

10-Day Weather Forecast

Advertisements
Track Severe Weather on mobile